Time;durP1;ratioP1;P1;durP2;ratioP2;P2;SDS_P1;SDS_P2;PMS_P1;PMS_P2;Temp;Humidity;BMP_temperature;BMP_pressure;BME280_temperature;BME280_humidity;BME280_pressure;Samples;Min_cycle;Max_cycle;Signal;HPM_P1;HPM_P2
2022/01/07 00:00:55;;;;;;;;;;;16.30;38.10;;;;;;8300870;28;20075;-48
2022/01/07 00:04:55;;;;;;;;;;;16.30;38.00;;;;;;8300103;28;19918;-47
2022/01/07 00:08:56;;;;;;;;;;;16.30;38.10;;;;;;8300612;28;19932;-49
2022/01/07 00:12:56;;;;;;;;;;;16.30;38.00;;;;;;8300358;28;19918;-46
2022/01/07 00:16:56;;;;;;;;;;;16.30;38.10;;;;;;8299921;28;19936;-48
2022/01/07 00:20:57;;;;;;;;;;;16.30;38.00;;;;;;8300346;28;20260;-47
2022/01/07 00:24:57;;;;;;;;;;;16.30;38.00;;;;;;8300103;28;19924;-52
2022/01/07 00:28:58;;;;;;;;;;;16.30;38.00;;;;;;8299343;28;19976;-51
2022/01/07 00:32:59;;;;;;;;;;;16.30;38.10;;;;;;8299703;28;19918;-49
2022/01/07 00:36:59;;;;;;;;;;;16.20;38.00;;;;;;8299990;28;20330;-46
2022/01/07 00:40:59;;;;;;;;;;;16.20;38.00;;;;;;8299105;28;19980;-48
2022/01/07 00:45:00;;;;;;;;;;;16.20;38.00;;;;;;8299718;28;19928;-47
2022/01/07 00:49:00;;;;;;;;;;;16.20;38.00;;;;;;8299058;28;19929;-50
2022/01/07 00:53:01;;;;;;;;;;;16.20;38.00;;;;;;8297738;28;19944;-49
2022/01/07 00:57:02;;;;;;;;;;;16.20;38.00;;;;;;8299622;28;19913;-48
2022/01/07 01:01:03;;;;;;;;;;;16.20;38.00;;;;;;8299007;28;19918;-51
2022/01/07 01:05:05;;;;;;;;;;;16.20;38.00;;;;;;8298358;28;19917;-48
2022/01/07 01:09:05;;;;;;;;;;;16.20;38.00;;;;;;8298614;28;19933;-49
2022/01/07 01:13:05;;;;;;;;;;;16.20;38.00;;;;;;8298566;28;20378;-49
2022/01/07 01:17:06;;;;;;;;;;;16.20;38.00;;;;;;8298230;28;19913;-50
2022/01/07 01:21:07;;;;;;;;;;;16.20;38.00;;;;;;8298218;28;19959;-49
2022/01/07 01:25:07;;;;;;;;;;;16.20;38.00;;;;;;8298319;28;19987;-48
2022/01/07 01:29:08;;;;;;;;;;;16.20;38.00;;;;;;8297697;28;19925;-50
2022/01/07 01:33:11;;;;;;;;;;;16.20;38.00;;;;;;8298144;28;20374;-48
2022/01/07 01:37:12;;;;;;;;;;;16.20;38.00;;;;;;8297180;28;19914;-50
2022/01/07 01:41:12;;;;;;;;;;;16.20;38.60;;;;;;8297333;28;19922;-51
2022/01/07 01:45:15;;;;;;;;;;;16.20;38.00;;;;;;8297838;28;20333;-48
2022/01/07 01:49:16;;;;;;;;;;;16.20;38.00;;;;;;8297708;28;20431;-49
2022/01/07 01:53:17;;;;;;;;;;;16.20;38.00;;;;;;8297386;28;20008;-48
2022/01/07 01:57:17;;;;;;;;;;;16.20;38.00;;;;;;8298015;28;20362;-49
2022/01/07 02:01:18;;;;;;;;;;;16.20;38.00;;;;;;8297466;28;19997;-47
2022/01/07 02:05:18;;;;;;;;;;;16.20;38.00;;;;;;8300438;28;19924;-50
2022/01/07 02:09:24;;;;;;;;;;;16.20;38.00;;;;;;8303450;28;20044;-48
2022/01/07 02:13:24;;;;;;;;;;;16.10;38.00;;;;;;8305392;28;19917;-47
2022/01/07 02:17:26;;;;;;;;;;;16.20;38.00;;;;;;8304449;28;19914;-47
2022/01/07 02:21:26;;;;;;;;;;;16.20;38.00;;;;;;8303849;28;20004;-48
2022/01/07 02:25:27;;;;;;;;;;;16.20;38.00;;;;;;8303312;28;20288;-48
2022/01/07 02:29:27;;;;;;;;;;;16.10;38.00;;;;;;8303689;28;20405;-48
2022/01/07 02:33:28;;;;;;;;;;;16.10;37.90;;;;;;8303550;28;19914;-48
2022/01/07 02:37:28;;;;;;;;;;;16.10;38.00;;;;;;8303265;28;19913;-48
2022/01/07 02:41:29;;;;;;;;;;;16.10;38.00;;;;;;8303357;28;19917;-46
2022/01/07 02:45:29;;;;;;;;;;;16.10;38.00;;;;;;8303448;28;19921;-48
2022/01/07 02:49:30;;;;;;;;;;;16.10;37.90;;;;;;8302530;28;19925;-48
2022/01/07 02:53:30;;;;;;;;;;;16.10;37.90;;;;;;8303051;28;19936;-48
2022/01/07 02:57:30;;;;;;;;;;;16.10;37.90;;;;;;8302919;28;20132;-47
2022/01/07 03:01:31;;;;;;;;;;;16.10;37.90;;;;;;8302240;28;20364;-48
2022/01/07 03:05:32;;;;;;;;;;;16.10;38.00;;;;;;8302618;28;19921;-48
2022/01/07 03:09:32;;;;;;;;;;;16.10;38.00;;;;;;8302487;28;19933;-48
2022/01/07 03:13:32;;;;;;;;;;;16.10;38.00;;;;;;8301995;28;19941;-51
2022/01/07 03:17:33;;;;;;;;;;;16.10;38.00;;;;;;8301478;28;19968;-51
2022/01/07 03:21:33;;;;;;;;;;;16.10;37.90;;;;;;8302040;28;19924;-47
2022/01/07 03:25:34;;;;;;;;;;;16.10;38.00;;;;;;8301443;28;19918;-47
2022/01/07 03:29:34;;;;;;;;;;;16.10;38.00;;;;;;8301811;28;19961;-47
2022/01/07 03:33:35;;;;;;;;;;;16.10;38.00;;;;;;8301674;28;19920;-50
2022/01/07 03:37:36;;;;;;;;;;;16.10;38.00;;;;;;8301200;28;20032;-49
2022/01/07 03:41:36;;;;;;;;;;;16.10;38.00;;;;;;8301701;28;19917;-48
2022/01/07 03:45:37;;;;;;;;;;;16.10;38.00;;;;;;8301614;28;20314;-47
2022/01/07 03:49:37;;;;;;;;;;;16.10;38.00;;;;;;8300590;28;19961;-49
2022/01/07 03:53:39;;;;;;;;;;;16.10;38.00;;;;;;8301330;28;19913;-48
2022/01/07 03:57:39;;;;;;;;;;;16.10;38.00;;;;;;8301012;28;20371;-48
2022/01/07 04:01:40;;;;;;;;;;;16.10;38.00;;;;;;8300207;28;19918;-49
2022/01/07 04:05:40;;;;;;;;;;;16.10;38.00;;;;;;8300804;28;19917;-49
2022/01/07 04:09:41;;;;;;;;;;;16.10;38.00;;;;;;8300575;28;19937;-48
2022/01/07 04:13:41;;;;;;;;;;;16.10;38.00;;;;;;8300188;28;19920;-48
2022/01/07 04:17:44;;;;;;;;;;;16.10;38.00;;;;;;8300510;28;19917;-49
2022/01/07 04:21:46;;;;;;;;;;;16.10;38.00;;;;;;8300325;28;19921;-48
2022/01/07 04:25:47;;;;;;;;;;;16.10;38.00;;;;;;8299601;28;19917;-46
2022/01/07 04:29:47;;;;;;;;;;;16.10;38.00;;;;;;8299529;28;19944;-48
2022/01/07 04:33:47;;;;;;;;;;;16.10;38.00;;;;;;8300042;28;20016;-45
2022/01/07 04:37:48;;;;;;;;;;;16.10;38.00;;;;;;8299174;28;20306;-48
2022/01/07 04:41:48;;;;;;;;;;;16.10;37.90;;;;;;8299545;28;19917;-49
2022/01/07 04:45:49;;;;;;;;;;;16.10;37.90;;;;;;8299664;28;19925;-48
2022/01/07 04:49:50;;;;;;;;;;;16.10;37.90;;;;;;8298700;28;19925;-47
2022/01/07 04:53:50;;;;;;;;;;;16.10;37.90;;;;;;8299404;28;20429;-48
2022/01/07 04:57:51;;;;;;;;;;;16.10;37.90;;;;;;8298917;28;19921;-46
2022/01/07 05:01:51;;;;;;;;;;;16.10;37.90;;;;;;8298391;28;19996;-48
2022/01/07 05:06:02;;;;;;;;;;;16.10;37.90;;;;;;8298989;28;19925;-47
2022/01/07 05:10:06;;;;;;;;;;;16.10;37.90;;;;;;8301536;28;19926;-48
2022/01/07 05:14:07;;;;;;;;;;;16.10;37.90;;;;;;8298292;28;19939;-48
2022/01/07 05:18:08;;;;;;;;;;;16.10;37.90;;;;;;8298460;28;19924;-50
2022/01/07 05:22:08;;;;;;;;;;;16.10;37.90;;;;;;8298862;28;19964;-48
2022/01/07 05:26:09;;;;;;;;;;;16.10;37.90;;;;;;8297821;28;19960;-48
2022/01/07 05:30:10;;;;;;;;;;;16.10;37.80;;;;;;8298043;28;19925;-51
2022/01/07 05:34:10;;;;;;;;;;;16.10;37.80;;;;;;8298322;28;20008;-48
2022/01/07 05:38:11;;;;;;;;;;;16.10;37.90;;;;;;8297047;28;19928;-48
2022/01/07 05:42:11;;;;;;;;;;;16.10;37.90;;;;;;8297810;28;19947;-50
2022/01/07 05:46:14;;;;;;;;;;;16.10;37.90;;;;;;8297774;28;19968;-48
2022/01/07 05:50:15;;;;;;;;;;;16.10;37.90;;;;;;8297084;28;19987;-46
2022/01/07 05:54:15;;;;;;;;;;;16.10;37.90;;;;;;8298040;28;19976;-48
2022/01/07 05:58:16;;;;;;;;;;;16.10;37.90;;;;;;8297884;28;19924;-48
2022/01/07 06:02:16;;;;;;;;;;;16.10;37.90;;;;;;8296973;28;19917;-49
2022/01/07 06:06:17;;;;;;;;;;;16.10;38.00;;;;;;8297352;28;20020;-46
2022/01/07 06:10:17;;;;;;;;;;;16.00;37.90;;;;;;8297221;28;19927;-45
2022/01/07 06:14:18;;;;;;;;;;;16.10;38.00;;;;;;8297288;28;19913;-48
2022/01/07 06:18:18;;;;;;;;;;;16.00;37.90;;;;;;8297331;28;20300;-46
2022/01/07 06:22:19;;;;;;;;;;;16.00;38.00;;;;;;8297215;28;19917;-48
2022/01/07 06:26:19;;;;;;;;;;;16.00;38.00;;;;;;8296735;28;20004;-48
2022/01/07 06:30:20;;;;;;;;;;;16.00;38.00;;;;;;8297214;28;19925;-48
2022/01/07 06:34:20;;;;;;;;;;;16.00;38.00;;;;;;8297349;28;19918;-49
2022/01/07 06:38:21;;;;;;;;;;;16.00;38.10;;;;;;8296609;28;19925;-49
2022/01/07 06:42:21;;;;;;;;;;;16.00;38.00;;;;;;8296811;28;19928;-48
2022/01/07 06:46:22;;;;;;;;;;;15.90;38.00;;;;;;8296747;28;20389;-47
2022/01/07 06:50:22;;;;;;;;;;;16.00;38.00;;;;;;8298428;28;19922;-48
2022/01/07 06:54:23;;;;;;;;;;;15.90;38.00;;;;;;8303260;28;19917;-49
2022/01/07 06:58:24;;;;;;;;;;;16.00;38.10;;;;;;8302357;28;19917;-49
2022/01/07 07:02:25;;;;;;;;;;;15.90;38.00;;;;;;8302491;28;19925;-48
2022/01/07 07:06:25;;;;;;;;;;;15.90;38.00;;;;;;8302581;28;19918;-47
2022/01/07 07:10:26;;;;;;;;;;;16.00;38.10;;;;;;8301957;28;20008;-49
2022/01/07 07:14:26;;;;;;;;;;;15.90;38.00;;;;;;8302738;28;20314;-49
2022/01/07 07:18:26;;;;;;;;;;;16.00;38.00;;;;;;8302133;28;20016;-49
2022/01/07 07:22:27;;;;;;;;;;;15.90;38.00;;;;;;8301553;28;19918;-48
2022/01/07 07:26:27;;;;;;;;;;;15.90;38.00;;;;;;8301990;28;20373;-48
2022/01/07 07:30:36;;;;;;;;;;;16.00;38.00;;;;;;8301664;28;21721;-49
2022/01/07 07:38:40;;;;;;;;;;;16.00;37.90;;;;;;8301615;28;19921;-49
2022/01/07 07:42:41;;;;;;;;;;;16.00;37.90;;;;;;8300861;28;19933;-48
2022/01/07 07:46:42;;;;;;;;;;;16.10;38.00;;;;;;8301108;28;19930;-48
2022/01/07 07:50:43;;;;;;;;;;;16.10;37.90;;;;;;8301038;28;20004;-49
2022/01/07 07:54:43;;;;;;;;;;;16.10;37.80;;;;;;8301073;28;20008;-47
2022/01/07 07:58:44;;;;;;;;;;;16.10;37.80;;;;;;8300399;28;19917;-48
2022/01/07 08:02:45;;;;;;;;;;;16.10;37.80;;;;;;8299571;28;19940;-49
2022/01/07 08:06:45;;;;;;;;;;;16.10;37.70;;;;;;8300347;28;19983;-48
2022/01/07 08:10:49;;;;;;;;;;;16.10;37.70;;;;;;8300135;28;20004;-48
2022/01/07 08:19:09;;;;;;;;;;;16.10;37.70;;;;;;8303635;28;19924;-47
2022/01/07 08:23:10;;;;;;;;;;;16.10;37.70;;;;;;8299601;28;19917;-48
2022/01/07 08:27:10;;;;;;;;;;;16.10;37.60;;;;;;8299842;28;19929;-48
2022/01/07 08:31:24;;;;;;;;;;;16.10;37.60;;;;;;8299945;28;20008;-48
2022/01/07 08:35:27;;;;;;;;;;;16.10;37.60;;;;;;8299593;28;19975;-48
2022/01/07 08:39:27;;;;;;;;;;;16.10;37.60;;;;;;8299658;28;19917;-48
2022/01/07 08:43:28;;;;;;;;;;;16.10;37.60;;;;;;8299010;28;20379;-47
2022/01/07 08:47:28;;;;;;;;;;;16.10;37.70;;;;;;8299606;28;19949;-48
2022/01/07 08:51:29;;;;;;;;;;;16.10;37.70;;;;;;8299227;28;19913;-46
2022/01/07 08:55:29;;;;;;;;;;;16.00;37.60;;;;;;8297629;28;19918;-48
2022/01/07 08:59:30;;;;;;;;;;;16.10;37.70;;;;;;8298754;28;19925;-46
2022/01/07 09:03:30;;;;;;;;;;;16.00;37.60;;;;;;8298828;28;19924;-47
2022/01/07 09:07:31;;;;;;;;;;;16.10;37.70;;;;;;8298083;28;19969;-47
2022/01/07 09:11:31;;;;;;;;;;;16.00;37.70;;;;;;8298529;28;19939;-48
2022/01/07 09:15:32;;;;;;;;;;;16.00;37.70;;;;;;8298125;28;19921;-46
2022/01/07 09:19:32;;;;;;;;;;;16.00;37.70;;;;;;8297958;28;20019;-49
2022/01/07 09:23:34;;;;;;;;;;;16.00;37.70;;;;;;8298270;28;20016;-47
2022/01/07 09:27:34;;;;;;;;;;;16.00;37.70;;;;;;8298105;28;19921;-48
2022/01/07 09:31:35;;;;;;;;;;;16.00;37.60;;;;;;8297642;28;19918;-49
2022/01/07 09:35:35;;;;;;;;;;;16.10;37.70;;;;;;8298083;28;19936;-48
2022/01/07 09:39:36;;;;;;;;;;;16.10;37.60;;;;;;8297856;28;19924;-49
2022/01/07 09:43:37;;;;;;;;;;;16.10;37.70;;;;;;8297491;28;19914;-49
2022/01/07 09:47:39;;;;;;;;;;;16.10;37.70;;;;;;8297995;28;19968;-53
2022/01/07 09:51:40;;;;;;;;;;;16.10;37.70;;;;;;8297655;28;19959;-51
2022/01/07 09:55:41;;;;;;;;;;;16.10;37.70;;;;;;8297398;28;20275;-47
2022/01/07 09:59:50;;;;;;;;;;;16.10;37.70;;;;;;8297387;28;19918;-47
2022/01/07 10:03:51;;;;;;;;;;;16.10;37.70;;;;;;8297369;28;19917;-48
2022/01/07 10:07:51;;;;;;;;;;;16.10;37.70;;;;;;8296893;28;19955;-51
2022/01/07 10:12:00;;;;;;;;;;;16.10;37.70;;;;;;8297529;28;20286;-46
2022/01/07 10:16:13;;;;;;;;;;;16.10;37.70;;;;;;8297373;28;19924;-47
2022/01/07 10:20:14;;;;;;;;;;;16.10;37.70;;;;;;8296707;28;19918;-47
2022/01/07 10:24:15;;;;;;;;;;;16.10;37.70;;;;;;8297432;28;19988;-46
2022/01/07 10:28:16;;;;;;;;;;;16.10;37.70;;;;;;8302395;28;19932;-47
2022/01/07 10:32:20;;;;;;;;;;;16.10;37.70;;;;;;8303056;28;19975;-49
2022/01/07 10:36:21;;;;;;;;;;;16.10;37.70;;;;;;8303995;28;19913;-48
2022/01/07 10:40:22;;;;;;;;;;;16.10;37.70;;;;;;8302659;28;19925;-46
2022/01/07 10:44:22;;;;;;;;;;;16.10;37.70;;;;;;8303037;28;19921;-49
2022/01/07 10:48:35;;;;;;;;;;;16.10;37.70;;;;;;8302906;28;20306;-48
2022/01/07 10:52:36;;;;;;;;;;;16.10;37.70;;;;;;8302634;28;19925;-49
2022/01/07 10:56:40;;;;;;;;;;;16.10;37.70;;;;;;8303029;28;20287;-50
2022/01/07 11:00:40;;;;;;;;;;;16.10;37.70;;;;;;8302856;28;20001;-48
2022/01/07 11:04:41;;;;;;;;;;;16.10;37.70;;;;;;8301325;28;19925;-48
2022/01/07 11:08:42;;;;;;;;;;;16.10;37.70;;;;;;8302598;28;19930;-48
2022/01/07 11:12:42;;;;;;;;;;;16.10;37.70;;;;;;8302231;28;19937;-50
2022/01/07 11:16:43;;;;;;;;;;;16.10;37.70;;;;;;8301599;28;19920;-49
2022/01/07 11:20:44;;;;;;;;;;;16.10;37.70;;;;;;8302051;28;19914;-47
2022/01/07 11:24:47;;;;;;;;;;;16.10;37.60;;;;;;8301735;28;19924;-46
2022/01/07 11:28:55;;;;;;;;;;;16.10;37.60;;;;;;8301189;28;19929;-49
2022/01/07 11:32:56;;;;;;;;;;;16.20;37.70;;;;;;8301723;28;19921;-46
2022/01/07 11:36:56;;;;;;;;;;;16.20;37.60;;;;;;8300597;28;19976;-46
2022/01/07 11:40:57;;;;;;;;;;;16.20;37.60;;;;;;8301255;28;20268;-47
2022/01/07 11:44:57;;;;;;;;;;;16.20;37.60;;;;;;8301250;28;19922;-47
2022/01/07 11:48:59;;;;;;;;;;;16.30;37.60;;;;;;8301330;28;20016;-46
2022/01/07 11:53:02;;;;;;;;;;;16.30;37.50;;;;;;8300546;28;19964;-50
2022/01/07 11:57:09;;;;;;;;;;;16.30;37.50;;;;;;8300994;28;19940;-47
2022/01/07 12:01:25;;;;;;;;;;;16.30;37.50;;;;;;8301030;28;19913;-48
2022/01/07 12:05:32;;;;;;;;;;;16.30;37.50;;;;;;8300194;28;19918;-48
2022/01/07 12:09:33;;;;;;;;;;;16.30;37.50;;;;;;8300450;28;19937;-47
2022/01/07 12:13:40;;;;;;;;;;;16.30;37.50;;;;;;8300007;28;19921;-47
2022/01/07 12:17:41;;;;;;;;;;;16.30;37.50;;;;;;8300593;28;20291;-49
2022/01/07 12:21:42;;;;;;;;;;;16.30;37.60;;;;;;8300304;28;19996;-49
2022/01/07 12:25:47;;;;;;;;;;;16.30;37.60;;;;;;8299816;28;19968;-46
2022/01/07 12:29:49;;;;;;;;;;;16.30;37.60;;;;;;8299744;28;19987;-47
2022/01/07 12:33:53;;;;;;;;;;;16.20;37.70;;;;;;8299885;28;19918;-46
2022/01/07 12:37:54;;;;;;;;;;;16.20;37.60;;;;;;8299192;28;19917;-47
2022/01/07 12:41:55;;;;;;;;;;;16.30;37.70;;;;;;8299753;28;19944;-48
2022/01/07 12:45:59;;;;;;;;;;;16.20;37.70;;;;;;8299452;28;19932;-47
2022/01/07 12:50:01;;;;;;;;;;;16.20;37.70;;;;;;8298602;28;19929;-47
2022/01/07 12:54:08;;;;;;;;;;;16.20;37.70;;;;;;8299328;28;20374;-50
2022/01/07 12:58:08;;;;;;;;;;;16.20;37.70;;;;;;8299196;28;19917;-48
2022/01/07 13:02:08;;;;;;;;;;;16.20;37.80;;;;;;8298714;28;20009;-48
2022/01/07 13:06:09;;;;;;;;;;;16.20;37.80;;;;;;8298717;28;19918;-50
2022/01/07 13:10:10;;;;;;;;;;;16.20;37.80;;;;;;8298656;28;19953;-49
2022/01/07 13:14:11;;;;;;;;;;;16.20;37.80;;;;;;8298150;28;19918;-48
2022/01/07 13:18:15;;;;;;;;;;;16.20;37.80;;;;;;8298800;28;19952;-47
2022/01/07 13:22:16;;;;;;;;;;;16.20;37.80;;;;;;8298551;28;19936;-47
2022/01/07 13:26:17;;;;;;;;;;;16.20;37.90;;;;;;8297759;28;19917;-51
2022/01/07 13:30:17;;;;;;;;;;;16.20;37.90;;;;;;8298159;28;19932;-48
2022/01/07 13:34:24;;;;;;;;;;;16.20;37.90;;;;;;8298116;28;19917;-51
2022/01/07 13:38:25;;;;;;;;;;;16.20;37.90;;;;;;8297958;28;20397;-48
2022/01/07 13:42:26;;;;;;;;;;;16.20;38.00;;;;;;8298311;28;19913;-48
2022/01/07 13:46:26;;;;;;;;;;;16.20;38.00;;;;;;8297720;28;19921;-53
2022/01/07 13:50:30;;;;;;;;;;;16.10;38.00;;;;;;8297987;28;19930;-51
2022/01/07 13:54:34;;;;;;;;;;;16.20;38.00;;;;;;8297602;28;20345;-53
2022/01/07 13:58:34;;;;;;;;;;;16.20;38.00;;;;;;8297060;28;19918;-49
2022/01/07 14:02:35;;;;;;;;;;;16.10;38.00;;;;;;8297413;28;20012;-48
2022/01/07 14:06:40;;;;;;;;;;;16.10;38.00;;;;;;8296765;28;19936;-48
2022/01/07 14:10:41;;;;;;;;;;;16.10;38.00;;;;;;8296918;28;19925;-48
2022/01/07 14:14:42;;;;;;;;;;;16.10;38.60;;;;;;8297522;28;20005;-48
2022/01/07 14:18:56;;;;;;;;;;;16.10;38.00;;;;;;8297068;28;19921;-49
2022/01/07 14:22:56;;;;;;;;;;;16.10;38.10;;;;;;8296595;28;20422;-49
2022/01/07 14:26:57;;;;;;;;;;;16.10;38.10;;;;;;8297122;28;19913;-49
2022/01/07 14:30:57;;;;;;;;;;;16.10;38.00;;;;;;8297018;28;20016;-52
2022/01/07 14:34:59;;;;;;;;;;;16.10;38.00;;;;;;8296585;28;19918;-51
2022/01/07 14:38:59;;;;;;;;;;;16.10;38.00;;;;;;8297267;28;20406;-49
2022/01/07 14:43:00;;;;;;;;;;;16.10;38.00;;;;;;8297162;28;19996;-49
2022/01/07 14:47:00;;;;;;;;;;;16.10;38.00;;;;;;8296547;28;19922;-52
2022/01/07 14:51:01;;;;;;;;;;;16.10;38.00;;;;;;8296933;28;20465;-50
2022/01/07 14:55:01;;;;;;;;;;;16.10;38.00;;;;;;8296831;28;19920;-50
2022/01/07 14:59:02;;;;;;;;;;;16.10;38.00;;;;;;8296041;28;19995;-50
2022/01/07 15:03:02;;;;;;;;;;;16.10;38.00;;;;;;8296766;28;19924;-49
2022/01/07 15:07:03;;;;;;;;;;;16.10;38.00;;;;;;8296617;28;20379;-49
2022/01/07 15:11:03;;;;;;;;;;;16.10;38.00;;;;;;8295982;28;20307;-48
2022/01/07 15:19:24;;;;;;;;;;;16.10;38.10;;;;;;8304267;28;20008;-49
2022/01/07 15:23:24;;;;;;;;;;;16.10;38.00;;;;;;8301975;28;19913;-48
2022/01/07 15:27:25;;;;;;;;;;;16.10;38.00;;;;;;8302086;28;20409;-51
2022/01/07 15:31:25;;;;;;;;;;;16.10;38.00;;;;;;8301318;28;20378;-48
2022/01/07 15:35:26;;;;;;;;;;;16.10;38.10;;;;;;8301893;28;19952;-48
2022/01/07 15:39:26;;;;;;;;;;;16.10;38.00;;;;;;8301473;28;19914;-49
2022/01/07 15:43:27;;;;;;;;;;;16.00;38.00;;;;;;8300855;28;19917;-51
2022/01/07 15:47:28;;;;;;;;;;;16.00;38.00;;;;;;8301287;28;20379;-50
2022/01/07 15:51:28;;;;;;;;;;;16.00;38.00;;;;;;8301107;28;19918;-50
2022/01/07 15:55:29;;;;;;;;;;;16.00;38.00;;;;;;8300525;28;19914;-50
2022/01/07 15:59:29;;;;;;;;;;;16.00;38.10;;;;;;8301058;28;20001;-50
2022/01/07 16:03:30;;;;;;;;;;;16.10;38.10;;;;;;8301130;28;20004;-52
2022/01/07 16:07:30;;;;;;;;;;;16.00;38.10;;;;;;8299957;28;19932;-49
2022/01/07 16:11:31;;;;;;;;;;;16.00;38.10;;;;;;8300505;28;19929;-50
2022/01/07 16:15:31;;;;;;;;;;;16.10;38.10;;;;;;8300393;28;19914;-50
2022/01/07 16:19:33;;;;;;;;;;;16.00;38.10;;;;;;8299798;28;19997;-48
2022/01/07 16:23:33;;;;;;;;;;;16.00;38.10;;;;;;8299937;28;19956;-48
2022/01/07 16:27:34;;;;;;;;;;;16.00;38.10;;;;;;8299940;28;19925;-49
2022/01/07 16:31:34;;;;;;;;;;;16.00;38.10;;;;;;8299355;28;19929;-48
2022/01/07 16:35:34;;;;;;;;;;;16.00;38.10;;;;;;8299807;28;20346;-48
2022/01/07 16:39:35;;;;;;;;;;;16.00;38.10;;;;;;8299575;28;20008;-49
2022/01/07 16:43:35;;;;;;;;;;;16.00;38.10;;;;;;8299364;28;20287;-49
2022/01/07 16:47:36;;;;;;;;;;;16.00;38.10;;;;;;8299745;28;20031;-53
2022/01/07 16:51:36;;;;;;;;;;;16.00;38.10;;;;;;8299302;28;19930;-49
2022/01/07 16:55:37;;;;;;;;;;;16.00;38.20;;;;;;8298846;28;20394;-49
2022/01/07 16:59:37;;;;;;;;;;;16.00;38.20;;;;;;8299063;28;19920;-51
2022/01/07 17:03:38;;;;;;;;;;;16.00;38.20;;;;;;8299266;28;20000;-49
2022/01/07 17:07:38;;;;;;;;;;;15.90;38.10;;;;;;8297661;28;19925;-48
2022/01/07 17:11:39;;;;;;;;;;;15.90;38.10;;;;;;8298965;28;20375;-52
2022/01/07 17:15:40;;;;;;;;;;;16.00;38.20;;;;;;8298469;28;19913;-50
2022/01/07 17:19:40;;;;;;;;;;;16.00;38.20;;;;;;8298079;28;19921;-50
2022/01/07 17:23:41;;;;;;;;;;;16.00;38.20;;;;;;8298617;28;20377;-50
2022/01/07 17:27:41;;;;;;;;;;;16.00;38.20;;;;;;8298199;28;19932;-50
2022/01/07 17:31:42;;;;;;;;;;;16.10;38.20;;;;;;8297683;28;19924;-49
2022/01/07 17:35:42;;;;;;;;;;;16.10;38.20;;;;;;8297257;28;19960;-49
2022/01/07 17:39:43;;;;;;;;;;;16.10;38.10;;;;;;8298134;28;20294;-48
2022/01/07 17:43:43;;;;;;;;;;;16.10;38.00;;;;;;8297673;28;19918;-48
2022/01/07 17:47:44;;;;;;;;;;;16.20;38.00;;;;;;8297984;28;19926;-50
2022/01/07 17:51:44;;;;;;;;;;;16.20;38.00;;;;;;8297633;28;19917;-50
2022/01/07 17:55:45;;;;;;;;;;;16.20;38.00;;;;;;8297202;28;19987;-49
2022/01/07 17:59:45;;;;;;;;;;;16.20;38.00;;;;;;8297308;28;19914;-50
2022/01/07 18:03:45;;;;;;;;;;;16.20;38.00;;;;;;8297404;28;20272;-52
2022/01/07 18:07:46;;;;;;;;;;;16.20;38.00;;;;;;8296622;28;20354;-49
2022/01/07 18:11:47;;;;;;;;;;;16.20;38.00;;;;;;8297319;28;19917;-49
2022/01/07 18:15:47;;;;;;;;;;;16.20;38.00;;;;;;8297097;28;19945;-48
2022/01/07 18:19:48;;;;;;;;;;;16.20;38.00;;;;;;8296686;28;19933;-50
2022/01/07 18:23:48;;;;;;;;;;;16.20;38.00;;;;;;8297446;28;19914;-47
2022/01/07 18:27:51;;;;;;;;;;;16.20;38.00;;;;;;8296950;28;19933;-49
2022/01/07 18:31:51;;;;;;;;;;;16.20;38.50;;;;;;8296544;28;20417;-48
2022/01/07 18:35:52;;;;;;;;;;;16.20;38.00;;;;;;8297145;28;19918;-48
2022/01/07 18:39:52;;;;;;;;;;;16.20;38.00;;;;;;8296749;28;19965;-47
2022/01/07 18:43:53;;;;;;;;;;;16.20;38.00;;;;;;8296651;28;20283;-48
2022/01/07 18:47:53;;;;;;;;;;;16.20;38.00;;;;;;8301406;28;19925;-46
2022/01/07 18:51:54;;;;;;;;;;;16.20;38.50;;;;;;8302965;28;19914;-47
2022/01/07 18:55:56;;;;;;;;;;;16.20;38.00;;;;;;8302339;28;19925;-47
2022/01/07 18:59:56;;;;;;;;;;;16.20;38.00;;;;;;8302891;28;19920;-46
2022/01/07 19:03:57;;;;;;;;;;;16.10;38.00;;;;;;8302977;28;20286;-49
2022/01/07 19:07:57;;;;;;;;;;;16.10;38.00;;;;;;8301972;28;19925;-46
2022/01/07 19:11:58;;;;;;;;;;;16.20;38.10;;;;;;8302656;28;19925;-48
2022/01/07 19:15:58;;;;;;;;;;;16.10;38.00;;;;;;8302325;28;20008;-49
2022/01/07 19:19:59;;;;;;;;;;;16.10;38.00;;;;;;8301828;28;20386;-49
2022/01/07 19:23:59;;;;;;;;;;;16.10;38.10;;;;;;8302631;28;20283;-51
2022/01/07 19:28:00;;;;;;;;;;;16.10;38.10;;;;;;8301813;28;19937;-48
2022/01/07 19:32:00;;;;;;;;;;;16.10;38.10;;;;;;8301280;28;20272;-50
2022/01/07 19:36:01;;;;;;;;;;;16.10;38.10;;;;;;8301698;28;19913;-50
2022/01/07 19:40:01;;;;;;;;;;;16.10;38.20;;;;;;8301625;28;20081;-50
2022/01/07 19:44:02;;;;;;;;;;;16.10;38.10;;;;;;8301292;28;19925;-49
2022/01/07 19:48:04;;;;;;;;;;;16.10;38.10;;;;;;8301189;28;19930;-48
2022/01/07 19:52:05;;;;;;;;;;;16.10;38.20;;;;;;8301051;28;20388;-48
2022/01/07 19:56:05;;;;;;;;;;;16.10;38.20;;;;;;8300592;28;20004;-48
2022/01/07 20:00:07;;;;;;;;;;;16.00;38.10;;;;;;8300282;28;19918;-48
2022/01/07 20:04:07;;;;;;;;;;;16.10;38.20;;;;;;8300083;28;19925;-47
2022/01/07 20:08:08;;;;;;;;;;;16.10;38.20;;;;;;8300046;28;19926;-49
2022/01/07 20:12:09;;;;;;;;;;;16.00;38.20;;;;;;8300347;28;19918;-47
2022/01/07 20:16:10;;;;;;;;;;;16.00;38.20;;;;;;8300466;28;19913;-48
2022/01/07 20:20:16;;;;;;;;;;;16.00;38.20;;;;;;8300004;28;19917;-50
2022/01/07 20:24:17;;;;;;;;;;;16.00;38.20;;;;;;8306079;28;19917;-50
2022/01/07 20:28:18;;;;;;;;;;;16.00;38.20;;;;;;8300022;28;19976;-50
2022/01/07 20:32:18;;;;;;;;;;;16.10;38.20;;;;;;8299335;28;19918;-50
2022/01/07 20:36:19;;;;;;;;;;;16.00;38.20;;;;;;8300060;28;19920;-50
2022/01/07 20:40:19;;;;;;;;;;;16.00;38.20;;;;;;8299779;28;19917;-50
2022/01/07 20:44:20;;;;;;;;;;;16.00;38.20;;;;;;8298923;28;19940;-49
2022/01/07 20:48:20;;;;;;;;;;;16.00;38.20;;;;;;8299779;28;19968;-48
2022/01/07 20:52:22;;;;;;;;;;;16.00;38.20;;;;;;8299290;28;19955;-50
2022/01/07 20:56:22;;;;;;;;;;;16.00;38.30;;;;;;8299270;28;20468;-48
2022/01/07 21:00:23;;;;;;;;;;;16.00;38.20;;;;;;8299199;28;19929;-48
2022/01/07 21:04:23;;;;;;;;;;;16.10;38.20;;;;;;8298854;28;20001;-48
2022/01/07 21:08:24;;;;;;;;;;;16.10;38.20;;;;;;8298934;28;19926;-48
2022/01/07 21:12:24;;;;;;;;;;;16.10;38.20;;;;;;8298664;28;19921;-47
2022/01/07 21:16:25;;;;;;;;;;;16.10;38.20;;;;;;8297891;28;20387;-48
2022/01/07 21:20:25;;;;;;;;;;;16.20;38.20;;;;;;8298629;28;20390;-49
2022/01/07 21:24:26;;;;;;;;;;;16.20;38.20;;;;;;8298505;28;20334;-48
2022/01/07 21:28:26;;;;;;;;;;;16.20;38.10;;;;;;8297873;28;20379;-47
2022/01/07 21:32:27;;;;;;;;;;;16.20;38.10;;;;;;8298286;28;20009;-49
2022/01/07 21:36:27;;;;;;;;;;;16.20;38.10;;;;;;8298062;28;19914;-50
2022/01/07 21:40:28;;;;;;;;;;;16.20;38.00;;;;;;8297697;28;20008;-47
2022/01/07 21:44:28;;;;;;;;;;;16.30;38.10;;;;;;8297719;28;20371;-51
2022/01/07 21:48:29;;;;;;;;;;;16.30;38.10;;;;;;8297737;28;19925;-48
2022/01/07 21:52:31;;;;;;;;;;;16.20;38.00;;;;;;8296719;28;21438;-51
2022/01/07 21:56:36;;;;;;;;;;;16.20;38.00;;;;;;8297872;28;19917;-48
2022/01/07 22:00:37;;;;;;;;;;;16.20;38.00;;;;;;8302499;28;19924;-48
2022/01/07 22:04:37;;;;;;;;;;;16.20;38.10;;;;;;8297113;28;20020;-47
2022/01/07 22:08:38;;;;;;;;;;;16.20;38.10;;;;;;8297445;28;19932;-48
2022/01/07 22:12:38;;;;;;;;;;;16.20;38.10;;;;;;8297309;28;19924;-50
2022/01/07 22:16:38;;;;;;;;;;;16.10;38.00;;;;;;8296910;28;19917;-50
2022/01/07 22:20:40;;;;;;;;;;;16.10;38.10;;;;;;8298360;28;19921;-48
2022/01/07 22:24:40;;;;;;;;;;;16.10;38.10;;;;;;8304132;28;20286;-49
2022/01/07 22:28:41;;;;;;;;;;;16.10;38.10;;;;;;8303363;28;19941;-50
2022/01/07 22:32:41;;;;;;;;;;;16.10;38.20;;;;;;8303532;28;19917;-49
2022/01/07 22:36:43;;;;;;;;;;;16.10;38.20;;;;;;8303598;28;19922;-47
2022/01/07 22:40:43;;;;;;;;;;;16.10;38.20;;;;;;8303031;28;19948;-47
2022/01/07 22:44:44;;;;;;;;;;;16.00;38.20;;;;;;8303171;28;19940;-48
2022/01/07 22:48:44;;;;;;;;;;;16.10;38.20;;;;;;8303277;28;20060;-47
2022/01/07 22:52:45;;;;;;;;;;;16.00;38.20;;;;;;8302635;28;19918;-47
2022/01/07 22:56:45;;;;;;;;;;;16.00;38.30;;;;;;8302977;28;19918;-48
2022/01/07 23:00:46;;;;;;;;;;;16.00;38.30;;;;;;8303072;28;19928;-48
2022/01/07 23:04:46;;;;;;;;;;;16.00;38.30;;;;;;8301583;28;19964;-48
2022/01/07 23:08:46;;;;;;;;;;;16.00;38.20;;;;;;8301895;28;19925;-49
2022/01/07 23:12:48;;;;;;;;;;;16.00;38.30;;;;;;8302479;28;19941;-47
2022/01/07 23:16:48;;;;;;;;;;;16.00;38.20;;;;;;8301853;28;20316;-48
2022/01/07 23:20:50;;;;;;;;;;;16.00;38.20;;;;;;8302471;28;19913;-50
2022/01/07 23:24:50;;;;;;;;;;;16.10;38.20;;;;;;8302084;28;20343;-50
2022/01/07 23:28:51;;;;;;;;;;;16.10;38.20;;;;;;8301414;28;19934;-48
2022/01/07 23:32:52;;;;;;;;;;;16.10;38.20;;;;;;8300819;28;20398;-48